sensor_id;sensor_type;location;lat;lon;timestamp;temperature;humidity
46123;DHT22;31856;-35.404;149.120;2023-09-19T00:00:57;22.50;35.90
46123;DHT22;31856;-35.404;149.120;2023-09-19T00:03:27;22.70;36.00
46123;DHT22;31856;-35.404;149.120;2023-09-19T00:05:57;22.80;35.50
46123;DHT22;31856;-35.404;149.120;2023-09-19T00:08:27;22.80;35.60
46123;DHT22;31856;-35.404;149.120;2023-09-19T00:10:57;22.90;35.50
46123;DHT22;31856;-35.404;149.120;2023-09-19T00:13:34;23.00;35.70
46123;DHT22;31856;-35.404;149.120;2023-09-19T00:16:09;23.10;36.00
46123;DHT22;31856;-35.404;149.120;2023-09-19T00:18:39;23.20;35.40
46123;DHT22;31856;-35.404;149.120;2023-09-19T00:21:09;23.20;35.90
46123;DHT22;31856;-35.404;149.120;2023-09-19T00:23:39;23.30;36.10
46123;DHT22;31856;-35.404;149.120;2023-09-19T00:26:11;23.40;35.60
46123;DHT22;31856;-35.404;149.120;2023-09-19T00:28:42;23.50;35.90
46123;DHT22;31856;-35.404;149.120;2023-09-19T00:31:12;23.60;35.50
46123;DHT22;31856;-35.404;149.120;2023-09-19T00:33:42;23.70;35.70
46123;DHT22;31856;-35.404;149.120;2023-09-19T00:36:12;23.70;35.60
46123;DHT22;31856;-35.404;149.120;2023-09-19T00:38:42;23.80;35.30
46123;DHT22;31856;-35.404;149.120;2023-09-19T00:41:13;24.00;35.50
46123;DHT22;31856;-35.404;149.120;2023-09-19T00:43:43;24.10;35.20
46123;DHT22;31856;-35.404;149.120;2023-09-19T00:46:16;24.10;35.10
46123;DHT22;31856;-35.404;149.120;2023-09-19T00:48:46;24.20;34.80
46123;DHT22;31856;-35.404;149.120;2023-09-19T00:51:16;24.30;35.50
46123;DHT22;31856;-35.404;149.120;2023-09-19T00:53:54;24.40;34.90
46123;DHT22;31856;-35.404;149.120;2023-09-19T00:56:24;24.50;35.00
46123;DHT22;31856;-35.404;149.120;2023-09-19T00:58:54;24.70;35.10
46123;DHT22;31856;-35.404;149.120;2023-09-19T01:01:23;24.70;34.80
46123;DHT22;31856;-35.404;149.120;2023-09-19T01:03:54;24.80;34.80
46123;DHT22;31856;-35.404;149.120;2023-09-19T01:06:24;24.80;34.30
46123;DHT22;31856;-35.404;149.120;2023-09-19T01:08:55;24.90;34.40
46123;DHT22;31856;-35.404;149.120;2023-09-19T01:11:28;25.00;34.60
46123;DHT22;31856;-35.404;149.120;2023-09-19T01:14:10;25.00;34.30
46123;DHT22;31856;-35.404;149.120;2023-09-19T01:16:44;25.10;34.20
46123;DHT22;31856;-35.404;149.120;2023-09-19T01:24:54;25.20;34.00
46123;DHT22;31856;-35.404;149.120;2023-09-19T01:30:08;25.40;33.90
46123;DHT22;31856;-35.404;149.120;2023-09-19T01:32:38;25.60;33.50
46123;DHT22;31856;-35.404;149.120;2023-09-19T01:35:10;25.50;33.50
46123;DHT22;31856;-35.404;149.120;2023-09-19T01:37:42;25.60;33.50
46123;DHT22;31856;-35.404;149.120;2023-09-19T02:36:50;26.90;28.90
46123;DHT22;31856;-35.404;149.120;2023-09-19T02:39:22;27.00;29.50
46123;DHT22;31856;-35.404;149.120;2023-09-19T02:41:52;27.00;29.60
46123;DHT22;31856;-35.404;149.120;2023-09-19T02:44:22;27.00;29.20
46123;DHT22;31856;-35.404;149.120;2023-09-19T02:46:53;27.00;29.20
46123;DHT22;31856;-35.404;149.120;2023-09-19T02:49:24;27.00;29.30
46123;DHT22;31856;-35.404;149.120;2023-09-19T02:51:54;27.10;29.60
46123;DHT22;31856;-35.404;149.120;2023-09-19T02:54:24;27.20;29.90
46123;DHT22;31856;-35.404;149.120;2023-09-19T02:56:55;27.20;29.40
46123;DHT22;31856;-35.404;149.120;2023-09-19T02:59:26;27.20;29.00
46123;DHT22;31856;-35.404;149.120;2023-09-19T03:01:57;27.30;29.30
46123;DHT22;31856;-35.404;149.120;2023-09-19T03:04:30;27.30;28.70
46123;DHT22;31856;-35.404;149.120;2023-09-19T03:07:00;27.30;28.30
46123;DHT22;31856;-35.404;149.120;2023-09-19T03:09:31;27.40;28.20
46123;DHT22;31856;-35.404;149.120;2023-09-19T03:12:01;27.40;28.00
46123;DHT22;31856;-35.404;149.120;2023-09-19T03:14:33;27.50;28.00
46123;DHT22;31856;-35.404;149.120;2023-09-19T03:17:04;27.60;27.60
46123;DHT22;31856;-35.404;149.120;2023-09-19T03:19:34;27.60;27.60
46123;DHT22;31856;-35.404;149.120;2023-09-19T03:22:05;27.60;27.70
46123;DHT22;31856;-35.404;149.120;2023-09-19T03:24:37;27.60;28.30
46123;DHT22;31856;-35.404;149.120;2023-09-19T03:27:08;27.60;28.90
46123;DHT22;31856;-35.404;149.120;2023-09-19T03:29:39;27.70;29.10
46123;DHT22;31856;-35.404;149.120;2023-09-19T03:32:09;27.70;29.00
46123;DHT22;31856;-35.404;149.120;2023-09-19T03:34:41;27.70;27.90
46123;DHT22;31856;-35.404;149.120;2023-09-19T03:37:12;27.70;28.40
46123;DHT22;31856;-35.404;149.120;2023-09-19T03:39:42;27.70;28.50
46123;DHT22;31856;-35.404;149.120;2023-09-19T03:42:12;27.60;29.10
46123;DHT22;31856;-35.404;149.120;2023-09-19T03:44:43;27.50;28.70
46123;DHT22;31856;-35.404;149.120;2023-09-19T03:47:13;27.60;28.90
46123;DHT22;31856;-35.404;149.120;2023-09-19T03:49:43;27.50;29.30
46123;DHT22;31856;-35.404;149.120;2023-09-19T03:52:13;27.60;29.00
46123;DHT22;31856;-35.404;149.120;2023-09-19T03:54:45;27.60;28.20
46123;DHT22;31856;-35.404;149.120;2023-09-19T03:57:16;27.70;28.50
46123;DHT22;31856;-35.404;149.120;2023-09-19T03:59:49;27.70;29.50
46123;DHT22;31856;-35.404;149.120;2023-09-19T04:02:22;27.70;29.00
46123;DHT22;31856;-35.404;149.120;2023-09-19T04:04:52;27.70;28.80
46123;DHT22;31856;-35.404;149.120;2023-09-19T04:07:22;27.70;29.00
46123;DHT22;31856;-35.404;149.120;2023-09-19T04:09:52;27.70;29.10
46123;DHT22;31856;-35.404;149.120;2023-09-19T04:12:25;27.80;29.20
46123;DHT22;31856;-35.404;149.120;2023-09-19T04:14:56;27.80;28.90
46123;DHT22;31856;-35.404;149.120;2023-09-19T04:17:26;27.90;28.70
46123;DHT22;31856;-35.404;149.120;2023-09-19T04:19:56;28.00;28.10
46123;DHT22;31856;-35.404;149.120;2023-09-19T04:22:26;28.00;27.90
46123;DHT22;31856;-35.404;149.120;2023-09-19T04:24:55;27.80;28.00
46123;DHT22;31856;-35.404;149.120;2023-09-19T04:27:26;27.70;28.70
46123;DHT22;31856;-35.404;149.120;2023-09-19T04:29:58;27.70;28.50
46123;DHT22;31856;-35.404;149.120;2023-09-19T04:32:29;27.70;28.70
46123;DHT22;31856;-35.404;149.120;2023-09-19T04:34:59;27.70;28.30
46123;DHT22;31856;-35.404;149.120;2023-09-19T04:37:32;27.70;28.60
46123;DHT22;31856;-35.404;149.120;2023-09-19T04:40:04;27.80;28.80
46123;DHT22;31856;-35.404;149.120;2023-09-19T04:42:36;27.80;28.70
46123;DHT22;31856;-35.404;149.120;2023-09-19T04:45:06;27.80;29.10
46123;DHT22;31856;-35.404;149.120;2023-09-19T04:47:38;27.80;29.40
46123;DHT22;31856;-35.404;149.120;2023-09-19T04:50:09;27.80;28.60
46123;DHT22;31856;-35.404;149.120;2023-09-19T04:52:43;27.70;28.60
46123;DHT22;31856;-35.404;149.120;2023-09-19T04:55:14;27.70;28.50
46123;DHT22;31856;-35.404;149.120;2023-09-19T04:57:47;27.70;28.10
46123;DHT22;31856;-35.404;149.120;2023-09-19T05:00:19;27.60;28.00
46123;DHT22;31856;-35.404;149.120;2023-09-19T05:02:53;27.70;27.90
46123;DHT22;31856;-35.404;149.120;2023-09-19T05:05:25;27.70;28.20
46123;DHT22;31856;-35.404;149.120;2023-09-19T05:07:55;27.60;28.10
46123;DHT22;31856;-35.404;149.120;2023-09-19T05:10:27;27.60;28.80
46123;DHT22;31856;-35.404;149.120;2023-09-19T05:12:56;27.50;29.10
46123;DHT22;31856;-35.404;149.120;2023-09-19T05:15:27;27.50;29.70
46123;DHT22;31856;-35.404;149.120;2023-09-19T05:17:57;27.40;29.40
46123;DHT22;31856;-35.404;149.120;2023-09-19T05:20:27;27.40;29.60
46123;DHT22;31856;-35.404;149.120;2023-09-19T05:23:02;27.40;29.20
46123;DHT22;31856;-35.404;149.120;2023-09-19T05:52:43;27.20;29.60
46123;DHT22;31856;-35.404;149.120;2023-09-19T05:55:15;27.10;29.80
46123;DHT22;31856;-35.404;149.120;2023-09-19T05:57:54;27.00;30.00
46123;DHT22;31856;-35.404;149.120;2023-09-19T06:00:24;27.10;30.20
46123;DHT22;31856;-35.404;149.120;2023-09-19T06:02:57;27.10;30.20
46123;DHT22;31856;-35.404;149.120;2023-09-19T06:05:27;27.10;29.90
46123;DHT22;31856;-35.404;149.120;2023-09-19T06:07:59;27.00;29.80
46123;DHT22;31856;-35.404;149.120;2023-09-19T06:10:28;26.90;29.60
46123;DHT22;31856;-35.404;149.120;2023-09-19T06:13:02;26.70;29.60
46123;DHT22;31856;-35.404;149.120;2023-09-19T06:15:34;26.70;29.50
46123;DHT22;31856;-35.404;149.120;2023-09-19T06:18:10;26.70;30.00
46123;DHT22;31856;-35.404;149.120;2023-09-19T06:20:42;26.70;29.60
46123;DHT22;31856;-35.404;149.120;2023-09-19T06:23:14;26.70;29.90
46123;DHT22;31856;-35.404;149.120;2023-09-19T06:25:44;26.60;30.00
46123;DHT22;31856;-35.404;149.120;2023-09-19T06:28:14;26.60;29.90
46123;DHT22;31856;-35.404;149.120;2023-09-19T06:30:47;26.50;29.90
46123;DHT22;31856;-35.404;149.120;2023-09-19T06:33:18;26.50;30.00
46123;DHT22;31856;-35.404;149.120;2023-09-19T06:35:50;26.40;30.40
46123;DHT22;31856;-35.404;149.120;2023-09-19T06:38:21;26.30;30.80
46123;DHT22;31856;-35.404;149.120;2023-09-19T06:40:52;26.30;31.20
46123;DHT22;31856;-35.404;149.120;2023-09-19T06:43:23;26.30;31.50
46123;DHT22;31856;-35.404;149.120;2023-09-19T06:45:53;26.20;31.60
46123;DHT22;31856;-35.404;149.120;2023-09-19T06:48:26;26.10;31.50
46123;DHT22;31856;-35.404;149.120;2023-09-19T06:50:56;26.00;31.50
46123;DHT22;31856;-35.404;149.120;2023-09-19T06:53:27;25.90;31.70
46123;DHT22;31856;-35.404;149.120;2023-09-19T06:55:57;25.80;32.10
46123;DHT22;31856;-35.404;149.120;2023-09-19T06:58:27;25.70;32.40
46123;DHT22;31856;-35.404;149.120;2023-09-19T07:00:57;25.70;32.80
46123;DHT22;31856;-35.404;149.120;2023-09-19T07:03:28;25.60;32.90
46123;DHT22;31856;-35.404;149.120;2023-09-19T07:05:58;25.50;33.00
46123;DHT22;31856;-35.404;149.120;2023-09-19T07:08:29;25.40;32.90
46123;DHT22;31856;-35.404;149.120;2023-09-19T07:10:59;25.30;33.30
46123;DHT22;31856;-35.404;149.120;2023-09-19T07:13:28;25.20;33.40
46123;DHT22;31856;-35.404;149.120;2023-09-19T07:15:58;25.10;33.80
46123;DHT22;31856;-35.404;149.120;2023-09-19T07:18:28;25.00;33.90
46123;DHT22;31856;-35.404;149.120;2023-09-19T07:20:58;24.90;34.10
46123;DHT22;31856;-35.404;149.120;2023-09-19T07:23:33;24.80;34.30
46123;DHT22;31856;-35.404;149.120;2023-09-19T07:26:03;24.70;34.40
46123;DHT22;31856;-35.404;149.120;2023-09-19T07:28:33;24.50;34.70
46123;DHT22;31856;-35.404;149.120;2023-09-19T07:31:05;24.50;34.60
46123;DHT22;31856;-35.404;149.120;2023-09-19T07:33:38;24.40;34.70
46123;DHT22;31856;-35.404;149.120;2023-09-19T07:36:11;24.40;35.10
46123;DHT22;31856;-35.404;149.120;2023-09-19T07:38:45;24.20;35.10
46123;DHT22;31856;-35.404;149.120;2023-09-19T07:41:14;24.10;35.20
46123;DHT22;31856;-35.404;149.120;2023-09-19T07:43:44;24.00;35.50
46123;DHT22;31856;-35.404;149.120;2023-09-19T07:46:14;23.90;35.60
46123;DHT22;31856;-35.404;149.120;2023-09-19T07:48:44;23.90;36.00
46123;DHT22;31856;-35.404;149.120;2023-09-19T07:51:18;23.70;36.40
46123;DHT22;31856;-35.404;149.120;2023-09-19T07:53:47;23.70;36.60
46123;DHT22;31856;-35.404;149.120;2023-09-19T07:56:17;23.60;36.90
46123;DHT22;31856;-35.404;149.120;2023-09-19T07:58:49;23.50;37.20
46123;DHT22;31856;-35.404;149.120;2023-09-19T08:01:18;23.50;37.40
46123;DHT22;31856;-35.404;149.120;2023-09-19T08:03:48;23.40;37.80
46123;DHT22;31856;-35.404;149.120;2023-09-19T08:06:18;23.30;38.20
46123;DHT22;31856;-35.404;149.120;2023-09-19T08:08:51;23.20;38.30
46123;DHT22;31856;-35.404;149.120;2023-09-19T08:11:22;23.20;38.50
46123;DHT22;31856;-35.404;149.120;2023-09-19T08:13:53;23.20;38.90
46123;DHT22;31856;-35.404;149.120;2023-09-19T08:16:23;23.10;39.10
46123;DHT22;31856;-35.404;149.120;2023-09-19T08:18:53;23.00;39.00
46123;DHT22;31856;-35.404;149.120;2023-09-19T08:21:24;23.00;39.10
46123;DHT22;31856;-35.404;149.120;2023-09-19T08:23:54;22.90;39.40
46123;DHT22;31856;-35.404;149.120;2023-09-19T08:26:25;22.80;39.30
46123;DHT22;31856;-35.404;149.120;2023-09-19T08:28:55;22.80;39.10
46123;DHT22;31856;-35.404;149.120;2023-09-19T08:31:25;22.80;39.50
46123;DHT22;31856;-35.404;149.120;2023-09-19T08:33:55;22.70;39.50
46123;DHT22;31856;-35.404;149.120;2023-09-19T08:36:25;22.70;39.40
46123;DHT22;31856;-35.404;149.120;2023-09-19T08:38:54;22.70;39.60
46123;DHT22;31856;-35.404;149.120;2023-09-19T08:41:25;22.50;39.90
46123;DHT22;31856;-35.404;149.120;2023-09-19T08:43:57;22.50;40.00
46123;DHT22;31856;-35.404;149.120;2023-09-19T08:46:33;22.30;40.10
46123;DHT22;31856;-35.404;149.120;2023-09-19T08:49:07;22.30;40.30
46123;DHT22;31856;-35.404;149.120;2023-09-19T08:51:42;22.20;40.20
46123;DHT22;31856;-35.404;149.120;2023-09-19T08:54:29;22.20;40.50
46123;DHT22;31856;-35.404;149.120;2023-09-19T08:57:00;22.20;40.50
46123;DHT22;31856;-35.404;149.120;2023-09-19T08:59:34;22.10;40.50
46123;DHT22;31856;-35.404;149.120;2023-09-19T09:02:10;22.00;40.70
46123;DHT22;31856;-35.404;149.120;2023-09-19T09:04:41;22.00;40.70
46123;DHT22;31856;-35.404;149.120;2023-09-19T09:07:11;22.00;40.70
46123;DHT22;31856;-35.404;149.120;2023-09-19T09:09:45;21.90;40.80
46123;DHT22;31856;-35.404;149.120;2023-09-19T09:12:15;21.80;40.80
46123;DHT22;31856;-35.404;149.120;2023-09-19T09:14:45;21.80;40.80
46123;DHT22;31856;-35.404;149.120;2023-09-19T09:17:18;21.70;41.00
46123;DHT22;31856;-35.404;149.120;2023-09-19T09:19:54;21.70;40.80
46123;DHT22;31856;-35.404;149.120;2023-09-19T09:22:23;21.70;41.10
46123;DHT22;31856;-35.404;149.120;2023-09-19T09:24:54;21.60;40.90
46123;DHT22;31856;-35.404;149.120;2023-09-19T09:27:27;21.60;40.80
46123;DHT22;31856;-35.404;149.120;2023-09-19T09:29:56;21.60;40.90
46123;DHT22;31856;-35.404;149.120;2023-09-19T09:32:27;21.60;40.70
46123;DHT22;31856;-35.404;149.120;2023-09-19T09:35:28;21.50;40.90
46123;DHT22;31856;-35.404;149.120;2023-09-19T09:37:59;21.50;40.80
46123;DHT22;31856;-35.404;149.120;2023-09-19T09:40:47;21.50;40.90
46123;DHT22;31856;-35.404;149.120;2023-09-19T09:43:25;21.30;41.10
46123;DHT22;31856;-35.404;149.120;2023-09-19T09:49:01;21.30;41.10
46123;DHT22;31856;-35.404;149.120;2023-09-19T09:51:50;21.30;41.20
46123;DHT22;31856;-35.404;149.120;2023-09-19T09:55:01;21.20;41.20
46123;DHT22;31856;-35.404;149.120;2023-09-19T09:57:36;21.10;41.30
46123;DHT22;31856;-35.404;149.120;2023-09-19T10:00:09;21.00;41.50
46123;DHT22;31856;-35.404;149.120;2023-09-19T10:02:42;21.00;41.40
46123;DHT22;31856;-35.404;149.120;2023-09-19T10:05:18;20.90;41.60
46123;DHT22;31856;-35.404;149.120;2023-09-19T10:07:56;20.80;41.80
46123;DHT22;31856;-35.404;149.120;2023-09-19T10:10:41;20.80;41.80
46123;DHT22;31856;-35.404;149.120;2023-09-19T10:13:12;20.70;42.00
46123;DHT22;31856;-35.404;149.120;2023-09-19T10:15:48;20.70;42.10
46123;DHT22;31856;-35.404;149.120;2023-09-19T10:18:24;20.60;42.70
46123;DHT22;31856;-35.404;149.120;2023-09-19T10:20:55;20.50;42.60
46123;DHT22;31856;-35.404;149.120;2023-09-19T10:23:27;20.40;43.10
46123;DHT22;31856;-35.404;149.120;2023-09-19T10:25:59;20.30;42.90
46123;DHT22;31856;-35.404;149.120;2023-09-19T10:28:30;20.30;43.20
46123;DHT22;31856;-35.404;149.120;2023-09-19T10:31:01;20.30;42.80
46123;DHT22;31856;-35.404;149.120;2023-09-19T10:33:36;20.30;42.70
46123;DHT22;31856;-35.404;149.120;2023-09-19T10:36:06;20.30;42.70
46123;DHT22;31856;-35.404;149.120;2023-09-19T10:38:37;20.30;42.60
46123;DHT22;31856;-35.404;149.120;2023-09-19T10:41:09;20.30;42.40
46123;DHT22;31856;-35.404;149.120;2023-09-19T10:43:40;20.20;42.60
46123;DHT22;31856;-35.404;149.120;2023-09-19T10:46:13;20.20;42.40
46123;DHT22;31856;-35.404;149.120;2023-09-19T10:48:43;20.20;42.60
46123;DHT22;31856;-35.404;149.120;2023-09-19T10:51:16;20.10;42.50
46123;DHT22;31856;-35.404;149.120;2023-09-19T10:53:50;20.10;42.30
46123;DHT22;31856;-35.404;149.120;2023-09-19T10:56:26;20.00;42.30
46123;DHT22;31856;-35.404;149.120;2023-09-19T10:59:07;20.00;42.50
46123;DHT22;31856;-35.404;149.120;2023-09-19T11:01:43;20.00;42.40
46123;DHT22;31856;-35.404;149.120;2023-09-19T11:07:08;19.90;42.00
46123;DHT22;31856;-35.404;149.120;2023-09-19T11:09:48;19.80;42.20
46123;DHT22;31856;-35.404;149.120;2023-09-19T11:15:06;19.80;42.00
46123;DHT22;31856;-35.404;149.120;2023-09-19T11:17:42;19.80;41.90
46123;DHT22;31856;-35.404;149.120;2023-09-19T11:20:17;19.80;42.00
46123;DHT22;31856;-35.404;149.120;2023-09-19T11:30:48;19.70;41.30
46123;DHT22;31856;-35.404;149.120;2023-09-19T11:33:18;19.70;41.30
46123;DHT22;31856;-35.404;149.120;2023-09-19T11:36:07;19.70;41.50
46123;DHT22;31856;-35.404;149.120;2023-09-19T11:38:57;19.60;41.10
46123;DHT22;31856;-35.404;149.120;2023-09-19T11:41:42;19.70;40.70
46123;DHT22;31856;-35.404;149.120;2023-09-19T11:46:52;19.80;40.50
46123;DHT22;31856;-35.404;149.120;2023-09-19T11:49:26;19.80;40.20
46123;DHT22;31856;-35.404;149.120;2023-09-19T11:52:02;19.80;40.30
46123;DHT22;31856;-35.404;149.120;2023-09-19T11:54:37;19.70;40.50
46123;DHT22;31856;-35.404;149.120;2023-09-19T11:57:10;19.70;40.40
46123;DHT22;31856;-35.404;149.120;2023-09-19T11:59:40;19.60;40.40
46123;DHT22;31856;-35.404;149.120;2023-09-19T12:02:10;19.60;40.10
46123;DHT22;31856;-35.404;149.120;2023-09-19T12:04:44;19.50;40.00
46123;DHT22;31856;-35.404;149.120;2023-09-19T12:07:18;19.50;39.80
46123;DHT22;31856;-35.404;149.120;2023-09-19T12:09:48;19.50;39.30
46123;DHT22;31856;-35.404;149.120;2023-09-19T12:12:25;19.50;39.30
46123;DHT22;31856;-35.404;149.120;2023-09-19T12:14:58;19.60;39.40
46123;DHT22;31856;-35.404;149.120;2023-09-19T12:17:35;19.60;39.30
46123;DHT22;31856;-35.404;149.120;2023-09-19T12:20:05;19.50;39.40
46123;DHT22;31856;-35.404;149.120;2023-09-19T12:22:46;19.50;39.20
46123;DHT22;31856;-35.404;149.120;2023-09-19T12:25:17;19.50;39.10
46123;DHT22;31856;-35.404;149.120;2023-09-19T12:27:50;19.50;38.90
46123;DHT22;31856;-35.404;149.120;2023-09-19T12:30:27;19.40;38.60
46123;DHT22;31856;-35.404;149.120;2023-09-19T12:32:58;19.40;38.50
46123;DHT22;31856;-35.404;149.120;2023-09-19T12:35:29;19.50;38.10
46123;DHT22;31856;-35.404;149.120;2023-09-19T12:38:04;19.40;38.30
46123;DHT22;31856;-35.404;149.120;2023-09-19T12:40:36;19.50;38.60
46123;DHT22;31856;-35.404;149.120;2023-09-19T12:43:07;19.40;38.20
46123;DHT22;31856;-35.404;149.120;2023-09-19T12:45:37;19.40;38.00
46123;DHT22;31856;-35.404;149.120;2023-09-19T12:48:24;19.50;37.60
46123;DHT22;31856;-35.404;149.120;2023-09-19T12:51:10;19.50;37.50
46123;DHT22;31856;-35.404;149.120;2023-09-19T12:53:45;19.60;37.70
46123;DHT22;31856;-35.404;149.120;2023-09-19T12:56:17;19.50;37.70
46123;DHT22;31856;-35.404;149.120;2023-09-19T12:58:56;19.60;37.80
46123;DHT22;31856;-35.404;149.120;2023-09-19T13:01:29;19.60;37.60
46123;DHT22;31856;-35.404;149.120;2023-09-19T13:06:41;19.50;37.90
46123;DHT22;31856;-35.404;149.120;2023-09-19T13:09:12;19.40;38.00
46123;DHT22;31856;-35.404;149.120;2023-09-19T13:11:43;19.40;38.00
46123;DHT22;31856;-35.404;149.120;2023-09-19T13:14:15;19.40;37.90
46123;DHT22;31856;-35.404;149.120;2023-09-19T13:16:56;19.30;38.10
46123;DHT22;31856;-35.404;149.120;2023-09-19T13:19:39;19.30;38.30
46123;DHT22;31856;-35.404;149.120;2023-09-19T13:24:59;19.30;38.60
46123;DHT22;31856;-35.404;149.120;2023-09-19T13:27:29;19.30;38.40
46123;DHT22;31856;-35.404;149.120;2023-09-19T13:29:59;19.20;38.50
46123;DHT22;31856;-35.404;149.120;2023-09-19T13:32:28;19.20;38.60
46123;DHT22;31856;-35.404;149.120;2023-09-19T13:34:58;19.20;38.60
46123;DHT22;31856;-35.404;149.120;2023-09-19T13:37:28;19.20;38.60
46123;DHT22;31856;-35.404;149.120;2023-09-19T13:39:57;19.10;38.60
46123;DHT22;31856;-35.404;149.120;2023-09-19T13:42:28;19.20;38.40
46123;DHT22;31856;-35.404;149.120;2023-09-19T13:44:58;19.20;38.20
46123;DHT22;31856;-35.404;149.120;2023-09-19T13:47:27;19.20;38.50
46123;DHT22;31856;-35.404;149.120;2023-09-19T13:49:57;19.10;38.50
46123;DHT22;31856;-35.404;149.120;2023-09-19T13:52:27;19.10;38.50
46123;DHT22;31856;-35.404;149.120;2023-09-19T13:54:59;19.10;37.90
46123;DHT22;31856;-35.404;149.120;2023-09-19T13:57:29;19.10;38.00
46123;DHT22;31856;-35.404;149.120;2023-09-19T13:59:58;19.10;37.90
46123;DHT22;31856;-35.404;149.120;2023-09-19T14:02:27;19.10;38.10
46123;DHT22;31856;-35.404;149.120;2023-09-19T14:04:57;19.00;38.20
46123;DHT22;31856;-35.404;149.120;2023-09-19T14:07:27;19.00;38.50
46123;DHT22;31856;-35.404;149.120;2023-09-19T14:09:56;18.90;38.50
46123;DHT22;31856;-35.404;149.120;2023-09-19T14:12:26;18.90;38.40
46123;DHT22;31856;-35.404;149.120;2023-09-19T14:14:55;18.90;38.70
46123;DHT22;31856;-35.404;149.120;2023-09-19T14:17:25;18.80;38.20
46123;DHT22;31856;-35.404;149.120;2023-09-19T14:19:56;18.90;38.30
46123;DHT22;31856;-35.404;149.120;2023-09-19T14:22:26;18.80;38.70
46123;DHT22;31856;-35.404;149.120;2023-09-19T14:24:56;18.80;38.70
46123;DHT22;31856;-35.404;149.120;2023-09-19T14:27:25;18.80;38.30
46123;DHT22;31856;-35.404;149.120;2023-09-19T14:29:55;18.80;38.20
46123;DHT22;31856;-35.404;149.120;2023-09-19T14:32:25;18.80;38.10
46123;DHT22;31856;-35.404;149.120;2023-09-19T14:34:55;18.80;38.00
46123;DHT22;31856;-35.404;149.120;2023-09-19T14:37:25;18.80;38.20
46123;DHT22;31856;-35.404;149.120;2023-09-19T14:39:56;18.70;38.20
46123;DHT22;31856;-35.404;149.120;2023-09-19T14:42:26;18.70;37.90
46123;DHT22;31856;-35.404;149.120;2023-09-19T14:44:55;18.70;38.00
46123;DHT22;31856;-35.404;149.120;2023-09-19T14:47:25;18.70;37.70
46123;DHT22;31856;-35.404;149.120;2023-09-19T14:49:56;18.70;37.70
46123;DHT22;31856;-35.404;149.120;2023-09-19T14:52:27;18.70;37.70
46123;DHT22;31856;-35.404;149.120;2023-09-19T14:54:57;18.70;37.40
46123;DHT22;31856;-35.404;149.120;2023-09-19T14:57:27;18.70;37.20
46123;DHT22;31856;-35.404;149.120;2023-09-19T14:59:56;18.60;37.50
46123;DHT22;31856;-35.404;149.120;2023-09-19T15:02:26;18.70;37.20
46123;DHT22;31856;-35.404;149.120;2023-09-19T15:04:56;18.70;37.00
46123;DHT22;31856;-35.404;149.120;2023-09-19T15:07:26;18.70;36.90
46123;DHT22;31856;-35.404;149.120;2023-09-19T15:09:57;18.80;36.80
46123;DHT22;31856;-35.404;149.120;2023-09-19T15:12:28;18.80;36.70
46123;DHT22;31856;-35.404;149.120;2023-09-19T15:14:58;18.80;36.40
46123;DHT22;31856;-35.404;149.120;2023-09-19T15:17:28;18.80;36.30
46123;DHT22;31856;-35.404;149.120;2023-09-19T15:19:58;18.80;36.20
46123;DHT22;31856;-35.404;149.120;2023-09-19T15:22:28;18.80;36.20
46123;DHT22;31856;-35.404;149.120;2023-09-19T15:24:57;18.80;36.10
46123;DHT22;31856;-35.404;149.120;2023-09-19T15:27:27;18.80;36.20
46123;DHT22;31856;-35.404;149.120;2023-09-19T15:29:59;18.80;36.10
46123;DHT22;31856;-35.404;149.120;2023-09-19T15:32:33;18.80;36.10
46123;DHT22;31856;-35.404;149.120;2023-09-19T15:35:03;18.80;36.10
46123;DHT22;31856;-35.404;149.120;2023-09-19T15:37:33;18.80;36.30
46123;DHT22;31856;-35.404;149.120;2023-09-19T15:40:03;18.70;36.40
46123;DHT22;31856;-35.404;149.120;2023-09-19T15:42:37;18.60;36.50
46123;DHT22;31856;-35.404;149.120;2023-09-19T15:45:06;18.50;36.60
46123;DHT22;31856;-35.404;149.120;2023-09-19T15:47:38;18.50;36.70
46123;DHT22;31856;-35.404;149.120;2023-09-19T15:50:08;18.50;36.60
46123;DHT22;31856;-35.404;149.120;2023-09-19T15:52:44;18.40;36.90
46123;DHT22;31856;-35.404;149.120;2023-09-19T15:55:15;18.40;36.90
46123;DHT22;31856;-35.404;149.120;2023-09-19T15:57:44;18.30;36.90
46123;DHT22;31856;-35.404;149.120;2023-09-19T16:00:14;18.30;37.00
46123;DHT22;31856;-35.404;149.120;2023-09-19T16:02:45;18.30;37.20
46123;DHT22;31856;-35.404;149.120;2023-09-19T16:05:16;18.20;37.30
46123;DHT22;31856;-35.404;149.120;2023-09-19T16:07:45;18.20;37.60
46123;DHT22;31856;-35.404;149.120;2023-09-19T16:10:15;18.20;37.80
46123;DHT22;31856;-35.404;149.120;2023-09-19T16:12:44;18.10;37.80
46123;DHT22;31856;-35.404;149.120;2023-09-19T16:15:14;18.10;37.70
46123;DHT22;31856;-35.404;149.120;2023-09-19T16:17:44;18.10;37.80
46123;DHT22;31856;-35.404;149.120;2023-09-19T16:20:14;18.10;38.00
46123;DHT22;31856;-35.404;149.120;2023-09-19T16:22:46;18.10;37.90
46123;DHT22;31856;-35.404;149.120;2023-09-19T16:25:16;18.10;37.70
46123;DHT22;31856;-35.404;149.120;2023-09-19T16:27:45;18.10;37.60
46123;DHT22;31856;-35.404;149.120;2023-09-19T16:30:15;18.00;37.30
46123;DHT22;31856;-35.404;149.120;2023-09-19T16:32:47;18.10;37.40
46123;DHT22;31856;-35.404;149.120;2023-09-19T17:02:17;17.90;37.00
46123;DHT22;31856;-35.404;149.120;2023-09-19T17:04:48;17.80;36.90
46123;DHT22;31856;-35.404;149.120;2023-09-19T17:07:18;17.80;37.00
46123;DHT22;31856;-35.404;149.120;2023-09-19T17:09:48;17.80;37.00
46123;DHT22;31856;-35.404;149.120;2023-09-19T17:12:19;17.80;37.10
46123;DHT22;31856;-35.404;149.120;2023-09-19T17:14:50;17.80;37.00
46123;DHT22;31856;-35.404;149.120;2023-09-19T17:17:20;17.70;37.10
46123;DHT22;31856;-35.404;149.120;2023-09-19T17:19:49;17.70;37.10
46123;DHT22;31856;-35.404;149.120;2023-09-19T17:22:19;17.80;37.00
46123;DHT22;31856;-35.404;149.120;2023-09-19T17:24:48;17.70;37.00
46123;DHT22;31856;-35.404;149.120;2023-09-19T17:27:18;17.80;36.90
46123;DHT22;31856;-35.404;149.120;2023-09-19T17:29:48;17.70;37.00
46123;DHT22;31856;-35.404;149.120;2023-09-19T17:32:17;17.70;37.10
46123;DHT22;31856;-35.404;149.120;2023-09-19T17:34:47;17.70;36.90
46123;DHT22;31856;-35.404;149.120;2023-09-19T17:37:20;17.70;37.10
46123;DHT22;31856;-35.404;149.120;2023-09-19T17:39:50;17.70;37.10